Time;durP1;ratioP1;P1;durP2;ratioP2;P2;SDS_P1;SDS_P2;PMS_P1;PMS_P2;Temp;Humidity;BMP_temperature;BMP_pressure;BME280_temperature;BME280_humidity;BME280_pressure;Samples;Min_cycle;Max_cycle;Signal;HPM_P1;HPM_P2
2023/05/28 00:01:48;;;;;;;13.90;6.90;;;;;;;;;;5027979;28;20477;-78
2023/05/28 00:04:15;;;;;;;14.77;5.90;;;;;;;;;;5028501;28;20487;-78
2023/05/28 00:06:42;;;;;;;20.70;7.13;;;;;;;;;;5029750;28;20917;-79
2023/05/28 00:09:10;;;;;;;15.93;6.00;;;;;;;;;;5025262;28;20456;-78
2023/05/28 00:11:38;;;;;;;12.20;6.30;;;;;;;;;;5013683;28;20556;-78
2023/05/28 00:14:06;;;;;;;16.70;6.40;;;;;;;;;;5029327;28;20463;-78
2023/05/28 00:16:35;;;;;;;11.43;6.50;;;;;;;;;;5029200;28;20483;-78
2023/05/28 00:19:01;;;;;;;14.43;6.80;;;;;;;;;;5024633;28;20477;-78
2023/05/28 00:21:27;;;;;;;19.97;7.20;;;;;;;;;;5032706;28;20446;-78
2023/05/28 00:23:54;;;;;;;12.50;7.00;;;;;;;;;;5026686;28;20993;-78
2023/05/28 00:26:20;;;;;;;14.33;7.00;;;;;;;;;;5030901;28;20445;-78
2023/05/28 00:28:47;;;;;;;14.30;5.87;;;;;;;;;;5010649;28;20470;-78
2023/05/28 00:31:15;;;;;;;11.47;6.40;;;;;;;;;;5029841;28;20532;-79
2023/05/28 00:33:43;;;;;;;18.23;7.70;;;;;;;;;;5032430;28;20961;-78
2023/05/28 00:36:10;;;;;;;12.97;6.87;;;;;;;;;;5031718;28;20453;-78
2023/05/28 00:38:36;;;;;;;21.90;7.63;;;;;;;;;;5029637;28;20475;-78
2023/05/28 00:41:03;;;;;;;21.60;7.80;;;;;;;;;;5034554;28;20467;-78
2023/05/28 00:43:29;;;;;;;17.23;6.50;;;;;;;;;;5033339;28;20472;-78
2023/05/28 00:45:57;;;;;;;18.53;6.83;;;;;;;;;;5036529;28;20445;-78
2023/05/28 00:48:25;;;;;;;17.97;6.43;;;;;;;;;;5034095;28;20479;-78
2023/05/28 00:50:51;;;;;;;13.03;6.03;;;;;;;;;;5028773;28;20452;-78
2023/05/28 00:53:18;;;;;;;17.20;6.10;;;;;;;;;;5032733;28;20484;-78
2023/05/28 00:55:44;;;;;;;16.63;6.40;;;;;;;;;;5031484;28;20449;-78
2023/05/28 00:58:11;;;;;;;16.63;8.03;;;;;;;;;;5031508;28;20481;-78
2023/05/28 01:00:39;;;;;;;18.17;7.13;;;;;;;;;;5031516;28;20826;-78
2023/05/28 01:03:05;;;;;;;10.10;6.43;;;;;;;;;;5023587;28;20496;-79
2023/05/28 01:05:34;;;;;;;13.03;6.50;;;;;;;;;;5034636;28;20488;-78
2023/05/28 01:08:02;;;;;;;17.13;7.77;;;;;;;;;;5034570;28;20891;-78
2023/05/28 01:10:28;;;;;;;16.33;7.80;;;;;;;;;;5016513;28;20472;-78
2023/05/28 01:12:56;;;;;;;10.10;6.53;;;;;;;;;;5033827;28;20476;-78
2023/05/28 01:15:23;;;;;;;13.33;7.57;;;;;;;;;;5027084;28;20452;-78
2023/05/28 01:17:49;;;;;;;15.60;8.03;;;;;;;;;;5024253;28;20476;-78
2023/05/28 01:20:16;;;;;;;14.80;8.23;;;;;;;;;;5032098;28;20457;-78
2023/05/28 01:22:47;;;;;;;12.80;7.17;;;;;;;;;;5021570;28;20477;-78
2023/05/28 01:25:15;;;;;;;10.07;6.90;;;;;;;;;;5018998;28;20472;-78
2023/05/28 01:27:42;;;;;;;13.50;6.83;;;;;;;;;;5033478;28;20483;-78
2023/05/28 01:30:11;;;;;;;13.83;7.03;;;;;;;;;;5029720;28;20462;-78
2023/05/28 01:32:38;;;;;;;14.73;8.33;;;;;;;;;;5028363;28;20492;-78
2023/05/28 01:35:04;;;;;;;17.60;8.10;;;;;;;;;;5030202;28;20452;-78
2023/05/28 01:37:33;;;;;;;10.80;7.07;;;;;;;;;;5025472;28;20476;-79
2023/05/28 01:40:00;;;;;;;12.43;7.17;;;;;;;;;;5031371;28;20962;-78
2023/05/28 01:42:29;;;;;;;13.33;8.33;;;;;;;;;;5033482;28;20468;-78
2023/05/28 01:44:55;;;;;;;14.27;8.20;;;;;;;;;;5028366;28;20490;-78
2023/05/28 01:47:22;;;;;;;13.43;7.60;;;;;;;;;;5024380;28;21035;-78
2023/05/28 01:49:48;;;;;;;11.20;7.10;;;;;;;;;;5036844;28;20554;-78
2023/05/28 01:52:15;;;;;;;14.23;8.10;;;;;;;;;;5009113;28;20484;-78
2023/05/28 01:54:41;;;;;;;16.43;8.13;;;;;;;;;;5026419;28;20508;-78
2023/05/28 01:57:07;;;;;;;14.63;7.30;;;;;;;;;;5031525;28;20476;-78
2023/05/28 01:59:35;;;;;;;11.63;7.43;;;;;;;;;;5032684;28;20488;-79
2023/05/28 02:02:01;;;;;;;12.73;6.67;;;;;;;;;;5026428;28;20476;-78
2023/05/28 02:04:28;;;;;;;19.27;7.93;;;;;;;;;;5025112;28;20485;-78
2023/05/28 02:06:55;;;;;;;14.47;8.00;;;;;;;;;;5030165;28;20465;-78
2023/05/28 02:09:21;;;;;;;15.37;6.90;;;;;;;;;;5031179;28;20472;-78
2023/05/28 02:11:48;;;;;;;17.43;7.40;;;;;;;;;;5031205;28;20480;-78
2023/05/28 02:14:16;;;;;;;14.67;7.07;;;;;;;;;;5025765;28;20440;-78
2023/05/28 02:16:47;;;;;;;13.43;7.50;;;;;;;;;;5031450;28;20468;-78
2023/05/28 02:19:14;;;;;;;14.40;8.20;;;;;;;;;;5032914;28;20483;-78
2023/05/28 02:21:40;;;;;;;15.23;7.73;;;;;;;;;;5027735;28;20461;-78
2023/05/28 02:24:07;;;;;;;12.07;8.30;;;;;;;;;;5032271;28;20445;-78
2023/05/28 02:26:33;;;;;;;15.63;8.37;;;;;;;;;;5034941;28;21000;-78
2023/05/28 02:28:59;;;;;;;20.20;8.87;;;;;;;;;;5028612;28;20475;-78
2023/05/28 02:31:26;;;;;;;15.33;6.83;;;;;;;;;;5019510;28;20448;-79
2023/05/28 02:33:53;;;;;;;11.80;7.47;;;;;;;;;;5029207;28;20464;-79
2023/05/28 02:36:20;;;;;;;16.20;7.80;;;;;;;;;;5028991;28;20457;-79
2023/05/28 02:38:47;;;;;;;10.23;6.80;;;;;;;;;;5030133;28;20483;-80
2023/05/28 02:41:13;;;;;;;23.50;8.80;;;;;;;;;;5031119;28;20835;-80
2023/05/28 02:43:39;;;;;;;12.17;7.90;;;;;;;;;;5031532;28;20453;-80
2023/05/28 02:46:06;;;;;;;20.43;7.13;;;;;;;;;;5037181;28;20519;-80
2023/05/28 02:48:32;;;;;;;15.97;9.47;;;;;;;;;;5030872;28;20473;-79
2023/05/28 02:51:00;;;;;;;17.43;7.87;;;;;;;;;;5030606;28;20814;-79
2023/05/28 02:53:29;;;;;;;16.83;7.50;;;;;;;;;;5025812;28;20860;-79
2023/05/28 02:55:55;;;;;;;15.93;9.33;;;;;;;;;;5026850;28;20454;-79
2023/05/28 02:58:23;;;;;;;11.00;7.60;;;;;;;;;;5027624;28;20488;-79
2023/05/28 03:00:50;;;;;;;27.70;9.97;;;;;;;;;;5027931;28;20499;-78
2023/05/28 03:03:16;;;;;;;18.53;8.67;;;;;;;;;;5031397;28;20540;-80
2023/05/28 03:05:43;;;;;;;17.97;8.77;;;;;;;;;;5025316;28;20487;-78
2023/05/28 03:08:10;;;;;;;17.40;10.03;;;;;;;;;;5034098;28;20860;-78
2023/05/28 03:10:37;;;;;;;16.13;8.63;;;;;;;;;;5032399;28;20460;-78
2023/05/28 03:13:03;;;;;;;14.33;8.87;;;;;;;;;;5024940;28;20465;-78
2023/05/28 03:15:31;;;;;;;17.60;9.10;;;;;;;;;;5031266;28;20445;-78
2023/05/28 03:17:57;;;;;;;15.40;8.47;;;;;;;;;;5027574;28;21010;-78
2023/05/28 03:20:23;;;;;;;14.10;7.73;;;;;;;;;;5025706;28;20445;-78
2023/05/28 03:22:50;;;;;;;15.77;8.70;;;;;;;;;;5016334;28;20480;-79
2023/05/28 03:25:18;;;;;;;14.63;8.77;;;;;;;;;;5025569;28;20517;-78
2023/05/28 03:27:45;;;;;;;22.97;8.70;;;;;;;;;;5028261;28;20476;-78
2023/05/28 03:30:14;;;;;;;19.23;10.33;;;;;;;;;;5031505;28;20460;-78
2023/05/28 03:32:40;;;;;;;18.30;8.30;;;;;;;;;;5025737;28;21049;-78
2023/05/28 03:35:07;;;;;;;15.43;8.13;;;;;;;;;;5025893;28;20456;-78
2023/05/28 03:37:33;;;;;;;15.13;8.13;;;;;;;;;;5029805;28;21007;-78
2023/05/28 03:40:00;;;;;;;14.30;8.00;;;;;;;;;;5022072;28;20452;-78
2023/05/28 03:42:27;;;;;;;18.17;8.80;;;;;;;;;;5030574;28;20469;-78
2023/05/28 03:44:54;;;;;;;14.83;8.30;;;;;;;;;;5024671;28;20481;-78
2023/05/28 03:47:21;;;;;;;17.77;8.70;;;;;;;;;;5021763;28;20548;-78
2023/05/28 03:49:48;;;;;;;15.67;8.70;;;;;;;;;;5030209;28;20450;-78
2023/05/28 03:52:14;;;;;;;13.43;8.57;;;;;;;;;;5027170;28;20469;-78
2023/05/28 03:54:41;;;;;;;21.17;9.90;;;;;;;;;;5029201;28;20452;-78
2023/05/28 03:57:07;;;;;;;14.93;9.40;;;;;;;;;;5032111;28;20828;-78
2023/05/28 03:59:35;;;;;;;18.83;9.50;;;;;;;;;;5020429;28;20457;-78
2023/05/28 04:02:01;;;;;;;18.40;7.97;;;;;;;;;;5030685;28;20469;-80
2023/05/28 04:04:27;;;;;;;17.20;8.93;;;;;;;;;;5021295;28;20959;-80
2023/05/28 04:06:54;;;;;;;13.80;9.40;;;;;;;;;;5022642;28;20479;-80
2023/05/28 04:09:20;;;;;;;14.40;7.77;;;;;;;;;;5028322;28;20445;-78
2023/05/28 04:11:47;;;;;;;19.70;8.90;;;;;;;;;;5031079;28;20472;-78
2023/05/28 04:14:13;;;;;;;18.73;7.93;;;;;;;;;;5029877;28;20539;-79
2023/05/28 04:16:41;;;;;;;14.83;8.70;;;;;;;;;;5009507;28;20473;-79
2023/05/28 04:19:08;;;;;;;13.73;8.13;;;;;;;;;;5029633;28;20450;-79
2023/05/28 04:21:34;;;;;;;17.20;8.90;;;;;;;;;;5032193;28;20498;-79
2023/05/28 04:24:01;;;;;;;19.30;9.00;;;;;;;;;;5028833;28;20449;-80
2023/05/28 04:26:29;;;;;;;18.03;8.87;;;;;;;;;;5026932;28;20477;-80
2023/05/28 04:28:55;;;;;;;18.47;10.03;;;;;;;;;;5033571;28;21000;-79
2023/05/28 04:31:22;;;;;;;20.20;9.57;;;;;;;;;;5017236;28;20457;-80
2023/05/28 04:33:50;;;;;;;15.00;8.87;;;;;;;;;;5027392;28;20921;-80
2023/05/28 04:36:16;;;;;;;17.93;10.10;;;;;;;;;;5031393;28;20460;-80
2023/05/28 04:38:42;;;;;;;16.50;9.37;;;;;;;;;;5022844;28;20472;-79
2023/05/28 04:41:09;;;;;;;17.07;9.60;;;;;;;;;;5027361;28;20445;-79
2023/05/28 04:43:35;;;;;;;20.63;10.07;;;;;;;;;;5029775;28;20449;-78
2023/05/28 04:46:03;;;;;;;15.97;9.63;;;;;;;;;;5032017;28;20481;-79
2023/05/28 04:48:31;;;;;;;12.10;8.80;;;;;;;;;;5012478;28;20465;-80
2023/05/28 04:50:59;;;;;;;15.27;8.87;;;;;;;;;;5027518;28;20535;-79
2023/05/28 04:53:25;;;;;;;18.10;9.00;;;;;;;;;;5029647;28;20542;-79
2023/05/28 04:55:51;;;;;;;17.00;11.10;;;;;;;;;;5021096;28;20442;-80
2023/05/28 04:58:18;;;;;;;14.60;8.97;;;;;;;;;;5029208;28;20982;-80
2023/05/28 05:00:44;;;;;;;18.23;9.77;;;;;;;;;;5025869;28;21210;-79
2023/05/28 05:03:11;;;;;;;22.03;9.77;;;;;;;;;;5026345;28;20473;-79
2023/05/28 05:05:39;;;;;;;18.47;9.90;;;;;;;;;;5025095;28;20484;-79
2023/05/28 05:08:08;;;;;;;15.27;8.53;;;;;;;;;;5021502;28;20484;-78
2023/05/28 05:10:35;;;;;;;18.73;9.57;;;;;;;;;;5038945;28;20453;-80
2023/05/28 05:13:01;;;;;;;16.13;9.70;;;;;;;;;;5019303;28;20470;-78
2023/05/28 05:15:28;;;;;;;20.70;10.70;;;;;;;;;;5030553;28;20444;-78
2023/05/28 05:17:54;;;;;;;20.60;9.73;;;;;;;;;;5028299;28;20477;-78
2023/05/28 05:20:21;;;;;;;22.20;10.30;;;;;;;;;;5025390;28;20951;-78
2023/05/28 05:22:47;;;;;;;17.10;10.70;;;;;;;;;;5028256;28;20479;-78
2023/05/28 05:25:15;;;;;;;21.10;10.87;;;;;;;;;;5029659;28;20480;-78
2023/05/28 05:27:42;;;;;;;23.80;10.30;;;;;;;;;;5027200;28;20477;-80
2023/05/28 05:30:09;;;;;;;19.60;10.07;;;;;;;;;;5035117;28;20452;-80
2023/05/28 05:32:35;;;;;;;18.97;9.77;;;;;;;;;;5014715;28;20468;-78
2023/05/28 05:35:02;;;;;;;17.97;10.30;;;;;;;;;;5029111;28;20815;-78
2023/05/28 05:37:29;;;;;;;20.57;11.30;;;;;;;;;;5034178;28;20485;-78
2023/05/28 05:39:55;;;;;;;20.13;10.70;;;;;;;;;;5022144;28;20448;-78
2023/05/28 05:42:23;;;;;;;18.53;11.13;;;;;;;;;;5025187;28;20481;-78
2023/05/28 05:44:49;;;;;;;13.10;9.47;;;;;;;;;;5028688;28;20456;-80
2023/05/28 05:47:16;;;;;;;21.33;10.23;;;;;;;;;;5032470;28;20477;-79
2023/05/28 05:49:42;;;;;;;21.30;10.97;;;;;;;;;;5032601;28;20455;-80
2023/05/28 05:52:08;;;;;;;14.90;9.97;;;;;;;;;;5031773;28;20480;-79
2023/05/28 05:54:34;;;;;;;22.20;10.63;;;;;;;;;;5028858;28;20445;-80
2023/05/28 05:57:02;;;;;;;15.17;10.20;;;;;;;;;;5030578;28;20998;-80
2023/05/28 05:59:30;;;;;;;22.83;9.80;;;;;;;;;;5015424;28;20974;-79
2023/05/28 06:01:56;;;;;;;14.97;10.37;;;;;;;;;;5015312;28;20875;-80
2023/05/28 06:04:22;;;;;;;16.60;10.00;;;;;;;;;;5027866;28;20448;-78
2023/05/28 06:06:49;;;;;;;22.07;10.70;;;;;;;;;;5030730;28;20476;-79
2023/05/28 06:09:16;;;;;;;16.70;10.27;;;;;;;;;;5017943;28;20439;-79
2023/05/28 06:11:42;;;;;;;23.90;11.33;;;;;;;;;;5032646;28;20471;-80
2023/05/28 06:14:09;;;;;;;19.33;10.40;;;;;;;;;;5034771;28;20467;-77
2023/05/28 06:16:36;;;;;;;17.27;10.77;;;;;;;;;;5029972;28;20469;-78
2023/05/28 06:19:03;;;;;;;18.47;10.50;;;;;;;;;;5029556;28;20448;-80
2023/05/28 06:21:29;;;;;;;18.33;9.87;;;;;;;;;;5034110;28;20973;-80
2023/05/28 06:23:56;;;;;;;21.57;11.97;;;;;;;;;;5031458;28;20453;-79
2023/05/28 06:26:22;;;;;;;21.27;10.77;;;;;;;;;;5030416;28;20484;-79
2023/05/28 06:28:49;;;;;;;20.63;11.10;;;;;;;;;;5033170;28;20466;-79
2023/05/28 06:31:15;;;;;;;15.30;9.87;;;;;;;;;;5023120;28;20507;-80
2023/05/28 06:33:43;;;;;;;15.60;9.40;;;;;;;;;;5031883;28;20444;-80
2023/05/28 06:36:10;;;;;;;19.70;10.37;;;;;;;;;;5032761;28;20933;-78
2023/05/28 06:38:37;;;;;;;19.57;10.60;;;;;;;;;;5024298;28;20468;-80
2023/05/28 06:41:03;;;;;;;18.97;10.67;;;;;;;;;;5026746;28;20445;-79
2023/05/28 06:43:30;;;;;;;24.97;10.83;;;;;;;;;;5033265;28;20475;-79
2023/05/28 06:45:57;;;;;;;14.90;9.60;;;;;;;;;;5033331;28;20463;-80
2023/05/28 06:48:23;;;;;;;18.00;9.90;;;;;;;;;;5020567;28;20443;-80
2023/05/28 06:50:51;;;;;;;20.33;10.17;;;;;;;;;;5031865;28;20465;-79
2023/05/28 06:53:17;;;;;;;19.53;10.87;;;;;;;;;;5028404;28;20487;-79
2023/05/28 06:55:43;;;;;;;23.97;10.70;;;;;;;;;;5030171;28;20454;-80
2023/05/28 06:58:10;;;;;;;21.10;10.33;;;;;;;;;;5029243;28;20489;-80
2023/05/28 07:00:37;;;;;;;14.80;10.17;;;;;;;;;;5029520;28;20544;-80
2023/05/28 07:03:03;;;;;;;16.77;10.53;;;;;;;;;;5015498;28;20548;-80
2023/05/28 07:05:30;;;;;;;19.57;9.60;;;;;;;;;;5015843;28;20424;-78
2023/05/28 07:07:59;;;;;;;18.27;10.03;;;;;;;;;;5026497;28;20474;-80
2023/05/28 07:10:25;;;;;;;19.40;10.80;;;;;;;;;;5035597;28;20485;-79
2023/05/28 07:12:52;;;;;;;16.67;9.30;;;;;;;;;;5032676;28;20483;-79
2023/05/28 07:15:18;;;;;;;21.53;10.13;;;;;;;;;;5031002;28;20420;-79
2023/05/28 07:17:45;;;;;;;15.50;10.70;;;;;;;;;;5027916;28;20473;-79
2023/05/28 07:20:12;;;;;;;18.47;10.23;;;;;;;;;;5033592;28;20816;-79
2023/05/28 07:22:38;;;;;;;24.83;10.33;;;;;;;;;;5025986;28;20509;-80
2023/05/28 07:25:07;;;;;;;19.83;10.23;;;;;;;;;;5008171;28;20423;-78
2023/05/28 07:27:33;;;;;;;23.87;11.10;;;;;;;;;;5039379;28;20556;-80
2023/05/28 07:30:00;;;;;;;17.03;10.07;;;;;;;;;;5007496;28;20783;-77
2023/05/28 07:32:26;;;;;;;14.40;9.30;;;;;;;;;;5026224;28;20480;-77
2023/05/28 07:34:52;;;;;;;17.50;9.30;;;;;;;;;;5033167;28;20423;-77
2023/05/28 07:37:19;;;;;;;12.67;9.30;;;;;;;;;;5034032;28;20482;-79
2023/05/28 07:39:45;;;;;;;16.27;8.90;;;;;;;;;;5025466;28;20420;-79
2023/05/28 07:42:14;;;;;;;14.03;9.70;;;;;;;;;;5031758;28;20470;-80
2023/05/28 07:44:40;;;;;;;19.80;9.00;;;;;;;;;;5030245;28;20460;-80
2023/05/28 07:47:06;;;;;;;18.10;9.50;;;;;;;;;;5032300;28;20473;-78
2023/05/28 07:49:33;;;;;;;19.53;9.23;;;;;;;;;;5028999;28;20968;-79
2023/05/28 07:51:59;;;;;;;17.10;10.00;;;;;;;;;;5032762;28;20983;-78
2023/05/28 07:54:26;;;;;;;15.73;8.73;;;;;;;;;;5018887;28;20480;-77
2023/05/28 07:56:52;;;;;;;17.70;9.10;;;;;;;;;;5020893;28;20477;-78
2023/05/28 07:59:21;;;;;;;13.83;8.73;;;;;;;;;;5010298;28;20866;-80
2023/05/28 08:01:50;;;;;;;16.50;7.70;;;;;;;;;;5028125;28;20480;-78
2023/05/28 08:04:17;;;;;;;19.80;9.53;;;;;;;;;;5034535;28;20445;-78
2023/05/28 08:06:43;;;;;;;14.70;8.13;;;;;;;;;;5025801;28;20480;-78
2023/05/28 08:09:10;;;;;;;16.43;7.57;;;;;;;;;;5013109;28;20461;-77
2023/05/28 08:11:36;;;;;;;15.07;7.97;;;;;;;;;;5028208;28;20476;-77
2023/05/28 08:14:03;;;;;;;12.20;7.13;;;;;;;;;;5029400;28;20475;-78
2023/05/28 08:16:30;;;;;;;13.00;7.40;;;;;;;;;;5026177;28;20522;-78
2023/05/28 08:18:57;;;;;;;19.00;7.80;;;;;;;;;;5030334;28;20461;-77
2023/05/28 08:21:23;;;;;;;14.47;8.00;;;;;;;;;;5022246;28;20453;-79
2023/05/28 08:23:49;;;;;;;13.27;8.50;;;;;;;;;;5040071;28;21062;-79
2023/05/28 08:26:16;;;;;;;17.43;8.00;;;;;;;;;;5022687;28;20485;-78
2023/05/28 08:28:42;;;;;;;12.00;6.80;;;;;;;;;;5030001;28;20465;-77
2023/05/28 08:31:09;;;;;;;17.67;7.77;;;;;;;;;;5028270;28;20823;-77
2023/05/28 08:33:36;;;;;;;18.90;7.53;;;;;;;;;;5032576;28;20934;-78
2023/05/28 08:36:03;;;;;;;14.60;7.83;;;;;;;;;;5032025;28;20452;-77
2023/05/28 08:38:30;;;;;;;13.00;7.27;;;;;;;;;;5024166;28;20481;-77
2023/05/28 08:40:57;;;;;;;18.27;8.03;;;;;;;;;;5030522;28;20498;-79
2023/05/28 08:43:24;;;;;;;16.83;8.20;;;;;;;;;;5024579;28;20465;-77
2023/05/28 08:45:51;;;;;;;13.10;7.40;;;;;;;;;;5011911;28;20449;-78
2023/05/28 08:48:18;;;;;;;10.67;7.10;;;;;;;;;;5017692;28;20488;-78
2023/05/28 08:50:48;;;;;;;16.20;8.23;;;;;;;;;;4998557;28;20452;-78
2023/05/28 08:53:16;;;;;;;15.27;7.70;;;;;;;;;;5013392;28;20473;-78
2023/05/28 08:55:42;;;;;;;11.60;7.00;;;;;;;;;;5006659;28;20448;-78
2023/05/28 08:58:10;;;;;;;13.07;7.10;;;;;;;;;;5031762;28;20480;-78
2023/05/28 09:00:38;;;;;;;16.13;8.33;;;;;;;;;;5024229;28;20943;-78
2023/05/28 09:03:07;;;;;;;16.93;7.57;;;;;;;;;;5032813;28;20472;-78
2023/05/28 09:05:34;;;;;;;16.60;7.00;;;;;;;;;;5032988;28;20821;-78
2023/05/28 09:08:01;;;;;;;12.63;7.07;;;;;;;;;;5030156;28;20538;-78
2023/05/28 09:10:28;;;;;;;14.90;6.87;;;;;;;;;;5035939;28;20464;-78
2023/05/28 09:13:00;;;;;;;16.20;8.00;;;;;;;;;;5028644;28;20477;-78
2023/05/28 09:15:26;;;;;;;13.10;7.57;;;;;;;;;;5030045;28;20997;-78
2023/05/28 09:17:53;;;;;;;16.87;7.03;;;;;;;;;;5035135;28;20472;-78
2023/05/28 09:20:19;;;;;;;13.87;7.17;;;;;;;;;;5032177;28;20453;-78
2023/05/28 09:22:46;;;;;;;12.10;7.57;;;;;;;;;;5016785;28;20482;-78
2023/05/28 09:25:14;;;;;;;16.17;7.23;;;;;;;;;;5032616;28;20484;-78
2023/05/28 09:27:44;;;;;;;18.20;8.13;;;;;;;;;;5035152;28;20472;-78
2023/05/28 09:30:11;;;;;;;20.30;7.47;;;;;;;;;;5031994;28;20459;-78
2023/05/28 09:32:38;;;;;;;13.90;7.60;;;;;;;;;;5032728;28;20479;-79
2023/05/28 09:35:05;;;;;;;13.67;6.63;;;;;;;;;;5031747;28;20816;-78
2023/05/28 09:37:31;;;;;;;13.63;7.27;;;;;;;;;;5018083;28;20478;-78
2023/05/28 09:40:02;;;;;;;15.87;8.80;;;;;;;;;;5036997;28;20445;-78
2023/05/28 09:42:38;;;;;;;16.03;8.30;;;;;;;;;;5046824;28;20471;-79
2023/05/28 09:45:05;;;;;;;15.50;7.37;;;;;;;;;;5015844;28;20440;-78
2023/05/28 09:47:31;;;;;;;12.00;6.93;;;;;;;;;;5034516;28;20481;-78
2023/05/28 09:49:57;;;;;;;11.40;6.63;;;;;;;;;;5021675;28;20455;-79
2023/05/28 09:52:24;;;;;;;10.77;7.07;;;;;;;;;;5028795;28;20469;-78
2023/05/28 09:54:52;;;;;;;17.07;7.30;;;;;;;;;;5033922;28;20807;-78
2023/05/28 09:57:18;;;;;;;17.73;6.80;;;;;;;;;;5025836;28;21002;-78
2023/05/28 09:59:47;;;;;;;10.83;7.03;;;;;;;;;;5030316;28;20453;-78
2023/05/28 10:02:20;;;;;;;15.20;7.17;;;;;;;;;;5027296;28;20858;-78
2023/05/28 10:04:48;;;;;;;11.07;7.03;;;;;;;;;;5031107;28;20447;-79
2023/05/28 10:07:14;;;;;;;9.53;5.77;;;;;;;;;;5031356;28;20477;-79
2023/05/28 10:09:42;;;;;;;12.57;7.20;;;;;;;;;;5034219;28;20949;-78
2023/05/28 10:12:10;;;;;;;13.13;7.60;;;;;;;;;;5033078;28;20904;-78
2023/05/28 10:14:38;;;;;;;9.67;5.93;;;;;;;;;;5032728;28;20449;-78
2023/05/28 10:17:06;;;;;;;11.80;7.17;;;;;;;;;;5028881;28;20472;-78
2023/05/28 10:19:32;;;;;;;13.87;6.03;;;;;;;;;;5026056;28;20462;-78
2023/05/28 10:21:59;;;;;;;9.83;5.07;;;;;;;;;;5014387;28;20488;-78
2023/05/28 10:24:26;;;;;;;12.10;6.47;;;;;;;;;;5038701;28;20445;-77
2023/05/28 10:26:53;;;;;;;11.27;6.10;;;;;;;;;;5031524;28;20480;-78
2023/05/28 10:29:20;;;;;;;12.03;6.50;;;;;;;;;;5015439;28;20441;-77
2023/05/28 10:31:57;;;;;;;12.13;5.53;;;;;;;;;;5034196;28;20479;-77
2023/05/28 10:34:30;;;;;;;16.10;5.90;;;;;;;;;;5024274;28;20452;-77
2023/05/28 10:36:56;;;;;;;7.90;5.33;;;;;;;;;;5029794;28;20909;-78
2023/05/28 10:39:23;;;;;;;11.00;5.80;;;;;;;;;;5026186;28;20973;-78
2023/05/28 10:41:50;;;;;;;12.77;6.43;;;;;;;;;;5024692;28;20557;-78
2023/05/28 10:44:18;;;;;;;9.13;5.07;;;;;;;;;;5028454;28;20445;-79
2023/05/28 10:46:44;;;;;;;8.27;5.23;;;;;;;;;;5029267;28;20560;-78
2023/05/28 10:49:12;;;;;;;10.10;5.10;;;;;;;;;;5037460;28;20455;-79
2023/05/28 10:51:56;;;;;;;10.17;4.43;;;;;;;;;;5033731;28;20472;-78
2023/05/28 10:54:24;;;;;;;10.33;5.60;;;;;;;;;;5033937;28;20460;-80
2023/05/28 10:57:09;;;;;;;10.93;5.30;;;;;;;;;;5014676;28;20496;-77
2023/05/28 10:59:53;;;;;;;11.33;5.67;;;;;;;;;;5029405;28;20448;-78
2023/05/28 11:02:34;;;;;;;10.70;5.13;;;;;;;;;;5033161;28;20471;-77
2023/05/28 11:05:01;;;;;;;7.77;5.60;;;;;;;;;;5032546;28;20957;-77
2023/05/28 11:07:30;;;;;;;8.07;5.40;;;;;;;;;;5031068;28;21088;-78
2023/05/28 11:09:57;;;;;;;10.00;4.60;;;;;;;;;;5025715;28;20441;-78
2023/05/28 11:12:26;;;;;;;11.30;5.67;;;;;;;;;;5027105;28;20473;-78
2023/05/28 11:14:53;;;;;;;15.80;5.57;;;;;;;;;;5031903;28;20456;-79
2023/05/28 11:17:20;;;;;;;12.73;5.57;;;;;;;;;;5033340;28;20465;-80
2023/05/28 11:19:47;;;;;;;8.30;5.67;;;;;;;;;;5030973;28;20455;-78
2023/05/28 11:22:14;;;;;;;8.87;5.80;;;;;;;;;;5028404;28;20502;-78
2023/05/28 11:24:58;;;;;;;15.53;7.47;;;;;;;;;;5012167;28;20516;-79
2023/05/28 11:27:25;;;;;;;11.33;5.53;;;;;;;;;;5027177;28;20473;-79
2023/05/28 11:29:51;;;;;;;7.77;4.93;;;;;;;;;;5031681;28;20445;-78
2023/05/28 11:32:21;;;;;;;7.67;5.00;;;;;;;;;;5030744;28;20481;-78
2023/05/28 11:34:48;;;;;;;9.60;5.43;;;;;;;;;;5013277;28;20959;-78
2023/05/28 11:37:15;;;;;;;5.80;4.70;;;;;;;;;;5029654;28;20473;-78
2023/05/28 11:39:48;;;;;;;7.80;4.87;;;;;;;;;;5033301;28;20966;-77
2023/05/28 11:42:16;;;;;;;7.50;4.43;;;;;;;;;;5015425;28;20477;-78
2023/05/28 11:44:44;;;;;;;6.77;4.37;;;;;;;;;;5031425;28;20450;-78
2023/05/28 11:47:10;;;;;;;10.47;5.60;;;;;;;;;;5026556;28;20532;-78
2023/05/28 11:49:37;;;;;;;8.80;5.20;;;;;;;;;;5031356;28;20478;-78
2023/05/28 11:52:04;;;;;;;7.10;4.13;;;;;;;;;;5022726;28;21015;-78
2023/05/28 11:54:30;;;;;;;7.03;4.63;;;;;;;;;;5028007;28;20444;-78
2023/05/28 11:56:56;;;;;;;10.10;5.20;;;;;;;;;;5028178;28;20482;-78
2023/05/28 11:59:25;;;;;;;7.43;5.07;;;;;;;;;;5022849;28;20452;-78
2023/05/28 12:01:52;;;;;;;10.17;5.10;;;;;;;;;;5030306;28;20465;-79
2023/05/28 12:04:22;;;;;;;9.93;5.40;;;;;;;;;;5033273;28;20444;-78
2023/05/28 12:06:52;;;;;;;4.53;4.10;;;;;;;;;;5026888;28;20461;-78
2023/05/28 12:09:19;;;;;;;6.73;4.90;;;;;;;;;;5031945;28;20850;-78
2023/05/28 12:12:02;;;;;;;6.23;5.10;;;;;;;;;;5029525;28;20469;-78
2023/05/28 12:14:30;;;;;;;8.53;5.40;;;;;;;;;;5024079;28;20476;-78
2023/05/28 12:16:56;;;;;;;6.43;4.50;;;;;;;;;;5025193;28;20489;-78
2023/05/28 12:19:22;;;;;;;5.63;4.50;;;;;;;;;;5030115;28;20507;-78
2023/05/28 12:21:49;;;;;;;6.60;4.40;;;;;;;;;;5028822;28;20473;-79
2023/05/28 12:24:15;;;;;;;6.80;4.60;;;;;;;;;;5021552;28;20471;-78
2023/05/28 12:26:42;;;;;;;6.03;4.60;;;;;;;;;;5011463;28;20479;-79
2023/05/28 12:29:08;;;;;;;6.43;4.57;;;;;;;;;;5031644;28;20487;-78
2023/05/28 12:31:36;;;;;;;5.80;4.60;;;;;;;;;;5035443;28;20465;-78
2023/05/28 12:34:03;;;;;;;4.37;3.47;;;;;;;;;;5035460;28;20946;-78
2023/05/28 12:36:29;;;;;;;5.83;4.37;;;;;;;;;;5034044;28;20479;-78
2023/05/28 12:38:56;;;;;;;5.27;3.97;;;;;;;;;;5031927;28;20843;-78
2023/05/28 12:41:22;;;;;;;6.43;3.77;;;;;;;;;;5039529;28;20448;-78
2023/05/28 12:43:48;;;;;;;4.10;3.27;;;;;;;;;;5036772;28;20444;-78
2023/05/28 12:46:16;;;;;;;4.67;3.87;;;;;;;;;;5013383;28;20498;-80
2023/05/28 12:48:44;;;;;;;6.23;3.67;;;;;;;;;;5021289;28;20490;-78
2023/05/28 12:51:12;;;;;;;5.77;4.07;;;;;;;;;;5033894;28;20536;-80
2023/05/28 12:53:38;;;;;;;7.20;3.87;;;;;;;;;;5036322;28;20468;-80
2023/05/28 12:56:05;;;;;;;5.27;3.60;;;;;;;;;;5037994;28;20471;-79
2023/05/28 12:58:31;;;;;;;6.67;4.23;;;;;;;;;;5029303;28;20991;-80
2023/05/28 13:00:58;;;;;;;5.50;3.90;;;;;;;;;;5021821;28;20455;-80
2023/05/28 13:03:24;;;;;;;9.60;4.00;;;;;;;;;;5032018;28;20476;-80
2023/05/28 13:05:52;;;;;;;6.90;4.10;;;;;;;;;;5034559;28;20966;-79
2023/05/28 13:08:19;;;;;;;8.33;4.37;;;;;;;;;;5021977;28;20475;-79
2023/05/28 13:10:45;;;;;;;6.57;4.40;;;;;;;;;;5030328;28;20476;-79
2023/05/28 13:13:11;;;;;;;7.93;4.23;;;;;;;;;;5035424;28;20477;-79
2023/05/28 13:15:38;;;;;;;8.50;3.90;;;;;;;;;;5031420;28;20447;-79
2023/05/28 13:18:04;;;;;;;7.73;3.90;;;;;;;;;;5033130;28;20473;-79
2023/05/28 13:20:30;;;;;;;6.03;3.40;;;;;;;;;;5035089;28;20440;-80
2023/05/28 13:22:58;;;;;;;8.17;3.43;;;;;;;;;;5035256;28;20476;-79
2023/05/28 13:25:24;;;;;;;4.97;3.63;;;;;;;;;;5031927;28;20467;-79
2023/05/28 13:27:51;;;;;;;11.73;4.83;;;;;;;;;;5033836;28;20476;-79
2023/05/28 13:30:17;;;;;;;8.97;3.70;;;;;;;;;;5034302;28;20445;-79
2023/05/28 13:32:43;;;;;;;9.10;4.53;;;;;;;;;;5029569;28;20461;-79
2023/05/28 13:35:11;;;;;;;7.07;4.17;;;;;;;;;;5035895;28;20460;-79
2023/05/28 13:37:38;;;;;;;9.37;3.90;;;;;;;;;;5015240;28;20472;-79
2023/05/28 13:40:08;;;;;;;7.50;4.33;;;;;;;;;;5033908;28;20472;-79
2023/05/28 13:42:34;;;;;;;10.50;4.57;;;;;;;;;;5031913;28;20468;-79
2023/05/28 13:45:01;;;;;;;11.10;4.97;;;;;;;;;;5035323;28;20547;-79
2023/05/28 13:47:27;;;;;;;6.90;4.00;;;;;;;;;;5027880;28;20985;-78
2023/05/28 13:49:53;;;;;;;9.67;4.00;;;;;;;;;;5036978;28;20483;-79
2023/05/28 13:52:20;;;;;;;6.90;3.50;;;;;;;;;;5014865;28;20474;-79
2023/05/28 13:54:46;;;;;;;9.10;4.07;;;;;;;;;;5028132;28;20659;-79
2023/05/28 13:57:14;;;;;;;11.47;4.60;;;;;;;;;;5030797;28;20469;-79
2023/05/28 13:59:42;;;;;;;7.40;4.10;;;;;;;;;;5035530;28;20441;-79
2023/05/28 14:02:09;;;;;;;7.50;3.70;;;;;;;;;;5032228;28;20468;-79
2023/05/28 14:04:35;;;;;;;7.93;4.33;;;;;;;;;;5031515;28;20452;-79
2023/05/28 14:07:02;;;;;;;10.73;5.00;;;;;;;;;;5035757;28;20540;-79
2023/05/28 14:09:28;;;;;;;5.43;3.87;;;;;;;;;;5031970;28;20485;-79
2023/05/28 14:11:55;;;;;;;6.83;4.70;;;;;;;;;;5026918;28;20544;-79
2023/05/28 14:14:23;;;;;;;9.00;3.30;;;;;;;;;;5022497;28;20951;-79
2023/05/28 14:16:49;;;;;;;10.83;4.83;;;;;;;;;;5027422;28;20555;-79
2023/05/28 14:19:15;;;;;;;7.00;3.73;;;;;;;;;;5035027;28;20447;-79
2023/05/28 14:21:43;;;;;;;10.63;3.90;;;;;;;;;;5024590;28;20468;-80
2023/05/28 14:24:09;;;;;;;7.27;4.50;;;;;;;;;;5016468;28;20453;-79
2023/05/28 14:26:36;;;;;;;7.00;3.37;;;;;;;;;;5029434;28;20464;-79
2023/05/28 14:29:02;;;;;;;5.33;3.30;;;;;;;;;;5030310;28;20480;-79
2023/05/28 14:31:30;;;;;;;7.80;3.73;;;;;;;;;;5029950;28;20458;-79